createdAt,value
2017-09-21T00:00:12.452Z,28.05
2017-09-21T00:02:40.355Z,31.30
2017-09-21T00:05:07.535Z,27.80
2017-09-21T00:07:34.820Z,28.92
2017-09-21T00:10:01.876Z,28.70
2017-09-21T00:12:30.363Z,25.85
2017-09-21T00:14:57.552Z,26.08
2017-09-21T00:17:28.065Z,27.48
2017-09-21T00:19:56.603Z,28.58
2017-09-21T00:22:26.210Z,24.67
2017-09-21T00:24:53.497Z,27.85
2017-09-21T00:29:52.261Z,27.25
2017-09-21T00:32:21.536Z,28.12
2017-09-21T00:34:50.023Z,24.50
2017-09-21T00:37:18.480Z,26.00
2017-09-21T00:42:18.663Z,27.70
2017-09-21T00:44:47.119Z,25.50
2017-09-21T00:49:47.736Z,28.80
2017-09-21T00:52:18.669Z,27.83
2017-09-21T00:57:23.851Z,26.33
2017-09-21T00:59:52.400Z,25.70
2017-09-21T01:04:55.292Z,29.65
2017-09-21T01:07:23.467Z,25.50
2017-09-21T01:09:50.744Z,26.90
2017-09-21T01:12:19.933Z,27.45
2017-09-21T01:14:47.175Z,26.10
2017-09-21T01:17:14.420Z,28.67
2017-09-21T01:19:42.386Z,26.77
2017-09-21T01:22:10.072Z,27.42
2017-09-21T01:24:37.165Z,27.02
2017-09-21T01:27:05.700Z,27.83
2017-09-21T01:29:34.205Z,27.02
2017-09-21T01:32:01.904Z,27.05
2017-09-21T01:34:29.102Z,26.27
2017-09-21T01:36:57.588Z,28.15
2017-09-21T01:39:26.377Z,28.20
2017-09-21T01:41:56.341Z,24.35
2017-09-21T01:44:24.440Z,28.77
2017-09-21T01:49:24.100Z,27.55
2017-09-21T01:51:51.279Z,26.20
2017-09-21T01:54:20.222Z,30.60
2017-09-21T01:59:22.327Z,28.15
2017-09-21T02:04:20.552Z,24.08
2017-09-21T02:06:48.610Z,29.23
2017-09-21T02:09:15.811Z,26.17
2017-09-21T02:11:43.053Z,26.20
2017-09-21T02:16:42.638Z,26.40
2017-09-21T02:19:13.025Z,27.58
2017-09-21T02:21:43.647Z,31.92
2017-09-21T02:29:12.879Z,28.40
2017-09-21T02:31:40.875Z,26.05
2017-09-21T02:34:10.178Z,27.70
2017-09-21T02:39:08.435Z,32.47
2017-09-21T02:41:36.380Z,29.65
2017-09-21T02:44:03.947Z,31.17
2017-09-21T02:49:05.386Z,28.10
2017-09-21T02:51:33.081Z,31.65
2017-09-21T02:56:31.885Z,27.80
2017-09-21T02:59:00.458Z,31.05
2017-09-21T03:01:28.948Z,31.42
2017-09-21T03:03:57.397Z,28.27
2017-09-21T03:11:29.019Z,30.73
2017-09-21T03:14:00.279Z,28.75
2017-09-21T03:29:03.744Z,29.75
2017-09-21T03:31:31.486Z,29.70
2017-09-21T03:34:01.984Z,25.70
2017-09-21T03:39:09.935Z,28.30
2017-09-21T03:41:38.474Z,30.42
2017-09-21T03:44:22.369Z,28.08
2017-09-21T03:46:52.955Z,36.75
2017-09-21T03:54:28.543Z,27.25
2017-09-21T03:59:30.660Z,27.33
2017-09-21T04:04:29.404Z,31.95
2017-09-21T04:06:57.122Z,31.15
2017-09-21T04:09:25.776Z,30.05
2017-09-21T04:11:56.389Z,29.12
2017-09-21T04:14:24.332Z,30.45
2017-09-21T04:19:24.695Z,36.05
2017-09-21T04:21:55.221Z,34.70
2017-09-21T04:26:54.849Z,35.92
2017-09-21T04:31:54.938Z,33.05
2017-09-21T04:34:23.820Z,34.67
2017-09-21T04:36:52.406Z,32.92
2017-09-21T04:39:20.918Z,31.25
2017-09-21T04:44:23.988Z,31.67
2017-09-21T04:49:23.611Z,32.35
2017-09-21T04:51:51.496Z,33.00
2017-09-21T04:54:22.128Z,30.83
2017-09-21T04:59:22.799Z,30.90
2017-09-21T05:01:53.256Z,31.52
2017-09-21T05:04:21.808Z,33.83
2017-09-21T05:11:52.996Z,32.55
2017-09-21T05:14:21.483Z,31.58
2017-09-21T05:16:49.998Z,35.35
2017-09-21T05:21:49.264Z,32.80
2017-09-21T05:26:49.616Z,34.95
2017-09-21T05:29:18.911Z,33.22
2017-09-21T05:39:19.216Z,32.97
2017-09-21T05:41:47.739Z,33.85
2017-09-21T05:44:15.513Z,33.30
2017-09-21T05:46:42.625Z,33.30
2017-09-21T05:51:41.098Z,34.55
2017-09-21T05:54:09.041Z,29.95
2017-09-21T05:59:09.380Z,29.52
2017-09-21T06:01:37.056Z,30.60
2017-09-21T06:04:05.040Z,32.38
2017-09-21T06:09:16.500Z,33.35
2017-09-21T06:11:44.080Z,28.10
2017-09-21T06:14:11.203Z,28.45
2017-09-21T06:16:38.591Z,27.33
2017-09-21T06:19:05.444Z,27.52
2017-09-21T06:21:32.323Z,31.20
2017-09-21T06:24:02.868Z,35.95
2017-09-21T06:26:29.688Z,35.97
2017-09-21T06:28:56.502Z,30.60
2017-09-21T06:31:23.708Z,33.55
2017-09-21T06:33:50.557Z,27.45
2017-09-21T06:36:17.652Z,27.90
2017-09-21T06:38:44.873Z,24.98
2017-09-21T06:41:12.009Z,26.50
2017-09-21T06:43:40.636Z,26.80
2017-09-21T06:46:08.496Z,23.92
2017-09-21T06:48:36.390Z,22.80
2017-09-21T06:51:03.536Z,23.70
2017-09-21T06:53:30.616Z,20.40
2017-09-21T06:55:59.804Z,18.12
2017-09-21T06:58:28.996Z,18.50
2017-09-21T07:00:57.055Z,17.08
2017-09-21T07:05:56.997Z,16.48
2017-09-21T07:08:24.723Z,17.55
2017-09-21T07:13:23.820Z,16.85
2017-09-21T07:15:50.694Z,16.83
2017-09-21T07:18:18.731Z,14.55
2017-09-21T07:23:49.216Z,13.90
2017-09-21T07:26:18.316Z,16.12
2017-09-21T07:28:46.691Z,16.48
2017-09-21T07:31:13.605Z,16.40
2017-09-21T07:33:40.856Z,15.50
2017-09-21T07:36:07.943Z,15.65
2017-09-21T07:38:35.177Z,15.10
2017-09-21T07:41:02.474Z,15.05
2017-09-21T07:43:29.608Z,14.95
2017-09-21T07:45:56.638Z,15.77
2017-09-21T07:50:55.783Z,13.77
2017-09-21T07:53:22.951Z,16.12
2017-09-21T07:55:49.725Z,14.93
2017-09-21T07:58:17.405Z,15.55
2017-09-21T08:00:44.178Z,14.35
2017-09-21T08:03:11.232Z,14.45
2017-09-21T08:05:38.225Z,15.18
2017-09-21T08:08:05.038Z,13.00
2017-09-21T08:10:32.158Z,14.02
2017-09-21T08:12:59.267Z,14.50
2017-09-21T08:15:26.505Z,13.30
2017-09-21T08:17:53.721Z,13.77
2017-09-21T08:20:20.948Z,13.65
2017-09-21T08:22:48.077Z,12.37
2017-09-21T08:25:15.633Z,13.20
2017-09-21T08:27:42.429Z,13.38
2017-09-21T08:30:13.063Z,12.93
2017-09-21T08:32:40.233Z,14.80
2017-09-21T08:35:07.306Z,12.18
2017-09-21T08:37:34.495Z,14.63
2017-09-21T08:40:01.311Z,14.00
2017-09-21T08:42:28.227Z,13.75
2017-09-21T08:44:55.446Z,12.30
2017-09-21T08:47:22.643Z,13.45
2017-09-21T08:49:49.861Z,13.80
2017-09-21T08:52:17.556Z,11.70
2017-09-21T08:54:44.377Z,12.95
2017-09-21T08:57:11.411Z,11.30
2017-09-21T08:59:38.477Z,11.60
2017-09-21T09:02:06.038Z,12.15
2017-09-21T09:04:33.282Z,9.77
2017-09-21T09:07:00.340Z,9.75
2017-09-21T09:09:27.529Z,11.25
2017-09-21T09:11:55.054Z,9.77
2017-09-21T09:14:22.168Z,11.25
2017-09-21T09:16:48.930Z,10.23
2017-09-21T09:19:15.735Z,10.27
2017-09-21T09:21:43.405Z,11.30
2017-09-21T09:24:10.497Z,11.00
2017-09-21T09:26:37.256Z,10.48
2017-09-21T09:29:04.457Z,9.35
2017-09-21T09:31:31.224Z,9.25
2017-09-21T09:33:58.706Z,9.95
2017-09-21T09:36:25.684Z,9.35
2017-09-21T09:38:52.458Z,10.90
2017-09-21T09:41:19.444Z,9.15
2017-09-21T09:43:46.425Z,7.40
2017-09-21T09:46:14.101Z,8.20
2017-09-21T09:48:41.087Z,8.80
2017-09-21T09:51:07.869Z,9.57
2017-09-21T09:53:35.505Z,9.07
2017-09-21T09:56:02.288Z,9.40
2017-09-21T09:58:29.983Z,8.60
2017-09-21T10:00:57.327Z,10.27
2017-09-21T10:03:25.068Z,9.07
2017-09-21T10:05:54.728Z,13.77
2017-09-21T10:08:22.568Z,9.07
2017-09-21T10:10:49.579Z,11.52
2017-09-21T10:13:16.421Z,10.60
2017-09-21T10:15:43.218Z,20.15
2017-09-21T10:18:12.096Z,10.45
2017-09-21T10:20:40.636Z,10.23
2017-09-21T10:23:07.724Z,10.60
2017-09-21T10:25:34.879Z,9.80
2017-09-21T10:28:01.876Z,11.85
2017-09-21T10:30:29.026Z,10.60
2017-09-21T10:32:56.914Z,12.82
2017-09-21T10:35:24.033Z,9.80
2017-09-21T10:37:52.079Z,11.10
2017-09-21T10:40:20.667Z,12.88
2017-09-21T10:42:47.454Z,10.55
2017-09-21T10:45:15.085Z,10.38
2017-09-21T10:47:42.161Z,11.50
2017-09-21T10:50:08.949Z,17.67
2017-09-21T10:52:36.038Z,10.70
2017-09-21T10:55:03.876Z,15.52
2017-09-21T10:57:31.024Z,11.05
2017-09-21T10:59:58.028Z,14.07
2017-09-21T11:02:25.192Z,10.18
2017-09-21T11:04:52.332Z,9.65
2017-09-21T11:07:19.506Z,9.82
2017-09-21T11:09:46.288Z,10.75
2017-09-21T11:12:13.624Z,11.85
2017-09-21T11:14:40.618Z,10.27
2017-09-21T11:17:09.128Z,11.68
2017-09-21T11:19:36.288Z,11.90
2017-09-21T11:22:03.812Z,11.45
2017-09-21T11:24:30.804Z,11.20
2017-09-21T11:26:57.992Z,10.52
2017-09-21T11:29:24.864Z,10.45
2017-09-21T11:31:51.862Z,9.23
2017-09-21T11:34:18.852Z,8.88
2017-09-21T11:39:17.961Z,10.10
2017-09-21T11:41:44.972Z,11.15
2017-09-21T11:44:13.500Z,10.30
2017-09-21T11:46:40.521Z,10.20
2017-09-21T11:49:07.575Z,11.80
2017-09-21T11:52:41.245Z,10.40
2017-09-21T11:55:08.006Z,8.73
2017-09-21T11:57:35.065Z,9.60
2017-09-21T12:00:01.879Z,10.82
2017-09-21T12:02:29.044Z,10.60
2017-09-21T12:04:56.092Z,8.57
2017-09-21T12:07:23.281Z,9.30
2017-09-21T12:09:50.380Z,8.77
2017-09-21T12:12:17.571Z,10.25
2017-09-21T12:14:44.337Z,9.75
2017-09-21T12:17:11.433Z,9.60
2017-09-21T12:19:38.597Z,8.75
2017-09-21T12:22:05.768Z,8.95
2017-09-21T12:24:32.934Z,9.80
2017-09-21T12:26:59.736Z,10.40
2017-09-21T12:29:26.917Z,9.50
2017-09-21T12:31:53.929Z,9.88
2017-09-21T12:34:21.012Z,10.50
2017-09-21T12:36:48.145Z,10.60
2017-09-21T12:39:15.660Z,9.35
2017-09-21T12:41:42.825Z,11.27
2017-09-21T12:44:10.879Z,10.88
2017-09-21T12:46:37.949Z,9.90
2017-09-21T12:49:05.070Z,12.55
2017-09-21T12:51:32.209Z,11.10
2017-09-21T12:53:59.395Z,12.00
2017-09-21T12:56:26.427Z,12.63
2017-09-21T12:58:53.523Z,13.02
2017-09-21T13:01:20.630Z,12.43
2017-09-21T13:03:48.314Z,11.70
2017-09-21T13:06:15.400Z,10.57
2017-09-21T13:08:42.924Z,9.50
2017-09-21T13:11:10.479Z,10.80
2017-09-21T13:13:37.628Z,12.35
2017-09-21T13:16:04.814Z,8.30
2017-09-21T13:18:31.969Z,13.57
2017-09-21T13:20:59.163Z,10.98
2017-09-21T13:23:26.388Z,10.80
2017-09-21T13:25:54.165Z,12.55
2017-09-21T13:28:21.300Z,11.88
2017-09-21T13:30:48.527Z,13.82
2017-09-21T13:33:15.600Z,11.38
2017-09-21T13:35:42.705Z,11.15
2017-09-21T13:38:10.208Z,8.90
2017-09-21T13:40:37.440Z,10.57
2017-09-21T13:43:04.555Z,16.20
2017-09-21T13:45:31.746Z,16.37
2017-09-21T13:47:58.924Z,10.10
2017-09-21T13:50:26.106Z,11.48
2017-09-21T13:52:52.892Z,10.98
2017-09-21T13:55:19.915Z,9.95
2017-09-21T13:57:47.456Z,10.60
2017-09-21T14:00:14.264Z,10.25
2017-09-21T14:02:41.365Z,11.30
2017-09-21T14:05:08.468Z,10.35
2017-09-21T14:07:35.250Z,10.98
2017-09-21T14:10:02.372Z,9.75
2017-09-21T14:12:29.202Z,10.43
2017-09-21T14:14:56.062Z,12.02
2017-09-21T14:17:23.100Z,11.43
2017-09-21T14:19:50.238Z,10.88
2017-09-21T14:22:17.287Z,10.90
2017-09-21T14:24:44.292Z,12.10
2017-09-21T14:27:11.075Z,11.65
2017-09-21T14:29:38.086Z,9.00
2017-09-21T14:32:05.181Z,11.35
2017-09-21T14:34:31.963Z,9.57
2017-09-21T14:36:58.961Z,10.45
2017-09-21T14:39:26.084Z,20.45
2017-09-21T14:41:52.856Z,13.62
2017-09-21T14:44:19.652Z,15.43
2017-09-21T14:46:46.756Z,13.13
2017-09-21T14:49:14.427Z,11.55
2017-09-21T14:51:41.403Z,11.40
2017-09-21T14:54:08.488Z,11.80
2017-09-21T14:56:35.578Z,15.32
2017-09-21T14:59:02.605Z,15.05
2017-09-21T15:01:29.784Z,13.90
2017-09-21T15:03:56.835Z,11.80
2017-09-21T15:06:23.826Z,12.90
2017-09-21T15:08:51.015Z,18.00
2017-09-21T15:11:18.037Z,11.88
2017-09-21T15:13:45.200Z,12.63
2017-09-21T15:16:12.368Z,12.65
2017-09-21T15:18:40.030Z,12.50
2017-09-21T15:21:07.215Z,12.65
2017-09-21T15:23:34.800Z,13.55
2017-09-21T15:26:02.051Z,11.80
2017-09-21T15:28:29.593Z,10.23
2017-09-21T15:30:57.411Z,10.68
2017-09-21T15:33:24.915Z,11.38
2017-09-21T15:35:52.002Z,13.70
2017-09-21T15:38:18.808Z,12.93
2017-09-21T15:40:45.917Z,12.02
2017-09-21T15:43:13.064Z,12.37
2017-09-21T15:45:40.259Z,11.45
2017-09-21T15:48:07.350Z,10.43
2017-09-21T15:50:34.441Z,10.88
2017-09-21T15:53:01.650Z,11.80
2017-09-21T15:55:28.772Z,12.98
2017-09-21T15:57:55.827Z,14.13
2017-09-21T16:00:22.916Z,12.10
2017-09-21T16:02:50.038Z,11.82
2017-09-21T16:05:17.204Z,12.00
2017-09-21T16:07:44.351Z,13.95
2017-09-21T16:10:11.418Z,14.20
2017-09-21T16:12:38.710Z,14.63
2017-09-21T16:15:05.980Z,13.88
2017-09-21T16:17:33.069Z,12.13
2017-09-21T16:20:00.306Z,13.55
2017-09-21T16:22:27.658Z,13.35
2017-09-21T16:24:54.911Z,12.07
2017-09-21T16:27:22.100Z,12.60
2017-09-21T16:29:50.032Z,13.82
2017-09-21T16:32:16.850Z,14.00
2017-09-21T16:34:43.987Z,12.50
2017-09-21T16:37:11.238Z,12.48
2017-09-21T16:39:38.488Z,14.20
2017-09-21T16:42:05.764Z,13.98
2017-09-21T16:44:33.008Z,14.18
2017-09-21T16:47:00.184Z,14.48
2017-09-21T16:49:27.816Z,15.95
2017-09-21T16:51:55.515Z,15.45
2017-09-21T16:54:24.148Z,13.95
2017-09-21T16:56:54.747Z,13.18
2017-09-21T16:59:22.623Z,15.65
2017-09-21T17:01:49.486Z,13.90
2017-09-21T17:04:16.738Z,14.27
2017-09-21T17:06:44.019Z,15.20
2017-09-21T17:09:12.129Z,13.55
2017-09-21T17:11:39.758Z,14.10
2017-09-21T17:14:07.025Z,13.88
2017-09-21T17:16:34.272Z,14.40
2017-09-21T17:19:01.584Z,14.23
2017-09-21T17:21:28.945Z,14.13
2017-09-21T17:23:56.071Z,15.30
2017-09-21T17:26:23.603Z,15.43
2017-09-21T17:28:50.835Z,20.25
2017-09-21T17:31:18.570Z,21.85
2017-09-21T17:33:46.441Z,31.02
2017-09-21T17:36:14.124Z,34.42
2017-09-21T17:38:41.990Z,24.50
2017-09-21T17:41:10.341Z,22.80
2017-09-21T17:43:37.444Z,20.75
2017-09-21T17:48:37.569Z,19.70
2017-09-21T17:51:04.861Z,18.90
2017-09-21T17:53:32.031Z,18.20
2017-09-21T17:55:59.183Z,17.00
2017-09-21T17:58:26.415Z,16.65
2017-09-21T18:00:55.546Z,16.15
2017-09-21T18:03:22.661Z,17.92
2017-09-21T18:05:50.724Z,18.50
2017-09-21T18:08:19.300Z,17.15
2017-09-21T18:10:46.415Z,17.85
2017-09-21T18:13:13.539Z,17.80
2017-09-21T18:15:40.768Z,20.80
2017-09-21T18:18:08.754Z,16.45
2017-09-21T18:20:36.400Z,16.02
2017-09-21T18:23:04.400Z,18.00
2017-09-21T18:25:34.831Z,18.23
2017-09-21T18:28:03.240Z,18.58
2017-09-21T18:30:30.351Z,18.55
2017-09-21T18:32:58.997Z,19.12
2017-09-21T18:35:28.415Z,18.83
2017-09-21T18:37:56.440Z,19.42
2017-09-21T18:40:24.516Z,19.50
2017-09-21T18:42:56.645Z,18.05
2017-09-21T18:45:24.391Z,18.85
2017-09-21T19:05:59.436Z,20.27
2017-09-21T19:13:56.001Z,20.15
